Tomahawk, WI

7:32 AM CDT on September 21, 2014 (GMT -0500)
Tomahawk | Change Station
CLOSE
Current Station
Airport
Location: Tomahawk,
Elevation: 1486 ft
Nearby Weather Stations

Elev 1486 ft 45.47 °N, 89.81 °W | Updated 17 minutes ago

Overcast
Overcast
51 °F
Feels Like 51 °F
N
8
Wind Variable Wind from North

Today
High -- | Low -- °F
--% Chance of Precip.
Yesterday
High -- | Low -- °F
Precip. -- in
6:44 AM 6:58 PM
Waning Crescent, 7% visible
Pressure 29.85 in
Visibility 7.0 miles
Clouds Scattered Clouds 400 ft
Mostly Cloudy 800 ft
Overcast 2100 ft
Dew Point 50 °F
Humidity 95%
Rainfall 0.63 in
Snow Depth Not available.
UV 0 out of 12
Pollen 1.40 out of 12
Air Quality Not available.
Flu Activity Not available.
METAR KTKV 211215Z AUTO 36007KT 330V030 7SM SCT004 BKN008 OVC021 11/10 A2985 RMK AO2 T01080101

More Conditions Fewer Conditions

Pressure 29.85 in
Visibility 7.0 miles
Clouds Scattered Clouds 400 ft
Mostly Cloudy 800 ft
Overcast 2100 ft
Dew Point 50 °F
Humidity 95%
Rainfall 0.63 in
Snow Depth Not available.
UV 0 out of 12
Pollen 1.40 out of 12
Air Quality Not available.
Flu Activity Not available.
METAR KTKV 211215Z AUTO 36007KT 330V030 7SM SCT004 BKN008 OVC021 11/10 A2985 RMK AO2 T01080101

More Conditions Fewer Conditions

10-Day Weather Forecast

Almanac

Astronomy

Sep. 21, 2014 Rise Set
Actual Time 6:44 AM CDT 6:58 PM CDT
Civil Twilight 6:15 AM CDT 7:27 PM CDT
Nautical Twilight 5:40 AM CDT 8:02 PM CDT
Astronomical Twilight 5:04 AM CDT 8:38 PM CDT
Moon 4:12 AM CDT 5:38 PM CDT
Length of Visible Light 13h 12m
Length of Day
12h 13m
Tomorrow will be 3m 10s shorter.
Waning Crescent, 7% of the Moon is Illuminated
Today
Waning Crescent
Sep 24
New
Oct 1
First Quarter
Oct 8
Full
Oct 15
Last Quarter

Today's Extremes

State Highs State Lows

Community

WunderPhotos

Upload Photos

1,755,127 photos uploaded!

Nearby

Snow Depth

Station Depth Elevation
No new snow has been reported.

Earthquake Activity

City Distance Mag. Time & Date
No recent earthquake activity has been reported nearby.
Minimum magnitude displayed is 2.5.

Coastal Water Temperatures

Place Temperature
No Stations Reporting

Nearby Weather Stations